Thurmond, North Carolina
Current Conditions -  °F | °C
As of 7:15 PM on Wednesday 22 Oct 2014 (Local Time) from KUKF Reporting Station
Scattered Clouds Scattered Clouds  
Wind Chill: 50°   Ceiling: Unl
Heat Index: 50°   Visibility: 10mi
Dew Point: 37°   Wind: 6mph
Humidity: 62%   Direction: 290°WNW
Pressure: 30.16"   Gusts: NA
Location:  36.37°N, 80.93°W
Report Text: KUKF 222315Z AUTO 29005KT 10SM SCT042 10/03 A3016 RMK AO2
Loading
Personal Weather Stations






























Interactive Weather Map
Tropical Storm Tracking
New forecast layout! Learn more

10-Day Weather Forecast

Advertisements
Track Severe Weather on mobile